sensor_id;sensor_type;location;lat;lon;timestamp;P1;durP1;ratioP1;P2;durP2;ratioP2
67248;SDS011;63247;54.300;18.592;2022-10-31T00:00:22;36.03;;;15.68;;
67248;SDS011;63247;54.300;18.592;2022-10-31T00:02:47;32.10;;;13.73;;
67248;SDS011;63247;54.300;18.592;2022-10-31T00:05:13;32.10;;;13.27;;
67248;SDS011;63247;54.300;18.592;2022-10-31T00:07:38;31.50;;;13.07;;
67248;SDS011;63247;54.300;18.592;2022-10-31T00:10:04;28.13;;;12.30;;
67248;SDS011;63247;54.300;18.592;2022-10-31T00:12:30;26.92;;;12.63;;
67248;SDS011;63247;54.300;18.592;2022-10-31T00:14:55;30.47;;;12.07;;
67248;SDS011;63247;54.300;18.592;2022-10-31T00:17:21;29.77;;;12.53;;
67248;SDS011;63247;54.300;18.592;2022-10-31T00:19:46;29.53;;;12.97;;
67248;SDS011;63247;54.300;18.592;2022-10-31T00:22:12;31.48;;;13.85;;
67248;SDS011;63247;54.300;18.592;2022-10-31T00:24:37;32.80;;;14.27;;
67248;SDS011;63247;54.300;18.592;2022-10-31T00:27:02;37.17;;;14.57;;
67248;SDS011;63247;54.300;18.592;2022-10-31T00:29:28;33.67;;;14.63;;
67248;SDS011;63247;54.300;18.592;2022-10-31T00:31:53;39.27;;;15.27;;
67248;SDS011;63247;54.300;18.592;2022-10-31T00:34:19;42.47;;;17.13;;
67248;SDS011;63247;54.300;18.592;2022-10-31T00:36:44;44.65;;;16.98;;
67248;SDS011;63247;54.300;18.592;2022-10-31T00:39:10;40.67;;;16.77;;
67248;SDS011;63247;54.300;18.592;2022-10-31T00:41:35;44.10;;;16.87;;
67248;SDS011;63247;54.300;18.592;2022-10-31T00:44:00;48.13;;;18.63;;
67248;SDS011;63247;54.300;18.592;2022-10-31T00:46:26;48.38;;;19.20;;
67248;SDS011;63247;54.300;18.592;2022-10-31T00:48:51;48.33;;;18.50;;
67248;SDS011;63247;54.300;18.592;2022-10-31T00:51:17;47.47;;;17.93;;
67248;SDS011;63247;54.300;18.592;2022-10-31T00:53:43;48.53;;;17.42;;
67248;SDS011;63247;54.300;18.592;2022-10-31T00:56:08;47.83;;;16.87;;
67248;SDS011;63247;54.300;18.592;2022-10-31T00:58:34;51.00;;;17.20;;
67248;SDS011;63247;54.300;18.592;2022-10-31T01:00:59;52.78;;;17.83;;
67248;SDS011;63247;54.300;18.592;2022-10-31T01:03:26;57.17;;;18.20;;
67248;SDS011;63247;54.300;18.592;2022-10-31T01:06:06;57.70;;;18.77;;
67248;SDS011;63247;54.300;18.592;2022-10-31T01:08:34;57.42;;;18.48;;
67248;SDS011;63247;54.300;18.592;2022-10-31T01:13:46;58.70;;;17.95;;
67248;SDS011;63247;54.300;18.592;2022-10-31T01:16:13;54.80;;;18.08;;
67248;SDS011;63247;54.300;18.592;2022-10-31T01:18:40;61.85;;;17.15;;
67248;SDS011;63247;54.300;18.592;2022-10-31T01:21:07;66.67;;;18.23;;
67248;SDS011;63247;54.300;18.592;2022-10-31T01:23:37;69.57;;;17.77;;
67248;SDS011;63247;54.300;18.592;2022-10-31T01:26:04;72.30;;;18.93;;
67248;SDS011;63247;54.300;18.592;2022-10-31T01:28:35;76.95;;;19.42;;
67248;SDS011;63247;54.300;18.592;2022-10-31T01:31:03;101.22;;;20.77;;
67248;SDS011;63247;54.300;18.592;2022-10-31T01:33:30;89.85;;;21.17;;
67248;SDS011;63247;54.300;18.592;2022-10-31T01:35:56;124.20;;;23.50;;
67248;SDS011;63247;54.300;18.592;2022-10-31T01:38:21;116.97;;;23.17;;
67248;SDS011;63247;54.300;18.592;2022-10-31T01:40:48;116.82;;;25.05;;
67248;SDS011;63247;54.300;18.592;2022-10-31T01:43:13;132.33;;;27.27;;
67248;SDS011;63247;54.300;18.592;2022-10-31T01:45:39;139.82;;;28.75;;
67248;SDS011;63247;54.300;18.592;2022-10-31T01:48:07;145.53;;;28.77;;
67248;SDS011;63247;54.300;18.592;2022-10-31T01:50:42;137.82;;;30.17;;
67248;SDS011;63247;54.300;18.592;2022-10-31T01:53:10;139.65;;;28.00;;
67248;SDS011;63247;54.300;18.592;2022-10-31T01:55:40;132.43;;;27.52;;
67248;SDS011;63247;54.300;18.592;2022-10-31T01:58:13;134.27;;;27.88;;
67248;SDS011;63247;54.300;18.592;2022-10-31T02:00:42;121.70;;;26.10;;
67248;SDS011;63247;54.300;18.592;2022-10-31T02:03:10;132.43;;;25.20;;
67248;SDS011;63247;54.300;18.592;2022-10-31T02:05:36;139.50;;;27.42;;
67248;SDS011;63247;54.300;18.592;2022-10-31T02:10:36;150.30;;;28.58;;
67248;SDS011;63247;54.300;18.592;2022-10-31T02:13:04;145.47;;;29.13;;
67248;SDS011;63247;54.300;18.592;2022-10-31T02:15:32;160.05;;;28.98;;
67248;SDS011;63247;54.300;18.592;2022-10-31T02:17:58;120.90;;;26.80;;
67248;SDS011;63247;54.300;18.592;2022-10-31T02:20:24;89.38;;;22.80;;
67248;SDS011;63247;54.300;18.592;2022-10-31T02:25:41;76.70;;;24.67;;
67248;SDS011;63247;54.300;18.592;2022-10-31T02:31:40;62.03;;;22.20;;
67248;SDS011;63247;54.300;18.592;2022-10-31T02:34:19;55.85;;;20.98;;
67248;SDS011;63247;54.300;18.592;2022-10-31T02:36:52;73.33;;;26.47;;
67248;SDS011;63247;54.300;18.592;2022-10-31T02:39:26;58.13;;;21.10;;
67248;SDS011;63247;54.300;18.592;2022-10-31T02:42:13;69.38;;;26.58;;
67248;SDS011;63247;54.300;18.592;2022-10-31T02:44:49;68.78;;;25.80;;
67248;SDS011;63247;54.300;18.592;2022-10-31T02:47:32;67.03;;;24.58;;
67248;SDS011;63247;54.300;18.592;2022-10-31T02:50:09;69.97;;;23.73;;
67248;SDS011;63247;54.300;18.592;2022-10-31T02:52:43;67.55;;;21.70;;
67248;SDS011;63247;54.300;18.592;2022-10-31T02:55:12;64.13;;;21.02;;
67248;SDS011;63247;54.300;18.592;2022-10-31T02:57:47;66.28;;;22.88;;
67248;SDS011;63247;54.300;18.592;2022-10-31T03:00:13;75.60;;;23.50;;
67248;SDS011;63247;54.300;18.592;2022-10-31T03:05:22;90.25;;;24.00;;
67248;SDS011;63247;54.300;18.592;2022-10-31T03:07:57;108.40;;;24.40;;
67248;SDS011;63247;54.300;18.592;2022-10-31T03:15:44;170.05;;;27.20;;
67248;SDS011;63247;54.300;18.592;2022-10-31T03:18:48;130.55;;;27.88;;
67248;SDS011;63247;54.300;18.592;2022-10-31T03:21:14;170.85;;;28.27;;
67248;SDS011;63247;54.300;18.592;2022-10-31T03:23:44;157.45;;;28.52;;
67248;SDS011;63247;54.300;18.592;2022-10-31T03:26:13;181.27;;;28.67;;
67248;SDS011;63247;54.300;18.592;2022-10-31T03:28:44;121.82;;;24.65;;
67248;SDS011;63247;54.300;18.592;2022-10-31T03:31:17;102.00;;;24.77;;
67248;SDS011;63247;54.300;18.592;2022-10-31T03:33:44;118.75;;;28.25;;
67248;SDS011;63247;54.300;18.592;2022-10-31T03:36:13;153.35;;;33.42;;
67248;SDS011;63247;54.300;18.592;2022-10-31T03:38:41;143.60;;;29.07;;
67248;SDS011;63247;54.300;18.592;2022-10-31T03:41:10;149.68;;;30.52;;
67248;SDS011;63247;54.300;18.592;2022-10-31T03:43:40;215.73;;;32.70;;
67248;SDS011;63247;54.300;18.592;2022-10-31T03:46:11;220.68;;;33.83;;
67248;SDS011;63247;54.300;18.592;2022-10-31T03:48:37;153.23;;;33.40;;
67248;SDS011;63247;54.300;18.592;2022-10-31T03:54:04;135.57;;;30.02;;
67248;SDS011;63247;54.300;18.592;2022-10-31T03:56:39;191.38;;;34.15;;
67248;SDS011;63247;54.300;18.592;2022-10-31T03:59:13;156.03;;;31.43;;
67248;SDS011;63247;54.300;18.592;2022-10-31T04:01:47;216.23;;;34.42;;
67248;SDS011;63247;54.300;18.592;2022-10-31T04:04:17;243.55;;;36.03;;
67248;SDS011;63247;54.300;18.592;2022-10-31T04:06:44;156.13;;;32.20;;
67248;SDS011;63247;54.300;18.592;2022-10-31T04:09:12;187.50;;;33.35;;
67248;SDS011;63247;54.300;18.592;2022-10-31T04:11:46;151.43;;;28.87;;
67248;SDS011;63247;54.300;18.592;2022-10-31T04:14:15;182.20;;;32.20;;
67248;SDS011;63247;54.300;18.592;2022-10-31T04:16:41;127.60;;;23.42;;
67248;SDS011;63247;54.300;18.592;2022-10-31T04:19:08;157.20;;;31.98;;
67248;SDS011;63247;54.300;18.592;2022-10-31T04:21:35;168.57;;;36.78;;
67248;SDS011;63247;54.300;18.592;2022-10-31T04:24:01;313.90;;;76.32;;
67248;SDS011;63247;54.300;18.592;2022-10-31T04:26:26;221.13;;;48.43;;
67248;SDS011;63247;54.300;18.592;2022-10-31T04:28:51;177.03;;;36.23;;
67248;SDS011;63247;54.300;18.592;2022-10-31T04:31:17;220.83;;;38.73;;
67248;SDS011;63247;54.300;18.592;2022-10-31T04:33:42;255.88;;;38.03;;
67248;SDS011;63247;54.300;18.592;2022-10-31T04:36:08;286.67;;;40.93;;
67248;SDS011;63247;54.300;18.592;2022-10-31T04:38:34;276.60;;;43.65;;
67248;SDS011;63247;54.300;18.592;2022-10-31T04:40:59;291.90;;;41.95;;
67248;SDS011;63247;54.300;18.592;2022-10-31T04:43:25;316.33;;;43.90;;
67248;SDS011;63247;54.300;18.592;2022-10-31T04:45:50;251.43;;;40.23;;
67248;SDS011;63247;54.300;18.592;2022-10-31T04:48:16;222.63;;;39.10;;
67248;SDS011;63247;54.300;18.592;2022-10-31T04:50:41;227.52;;;39.55;;
67248;SDS011;63247;54.300;18.592;2022-10-31T04:53:07;238.40;;;41.00;;
67248;SDS011;63247;54.300;18.592;2022-10-31T04:55:32;178.63;;;40.27;;
67248;SDS011;63247;54.300;18.592;2022-10-31T04:57:58;211.07;;;41.70;;
67248;SDS011;63247;54.300;18.592;2022-10-31T05:00:23;184.32;;;40.20;;
67248;SDS011;63247;54.300;18.592;2022-10-31T05:02:50;166.47;;;38.83;;
67248;SDS011;63247;54.300;18.592;2022-10-31T05:05:17;205.35;;;40.90;;
67248;SDS011;63247;54.300;18.592;2022-10-31T05:07:45;221.65;;;43.30;;
67248;SDS011;63247;54.300;18.592;2022-10-31T05:10:13;222.63;;;44.65;;
67248;SDS011;63247;54.300;18.592;2022-10-31T05:12:48;238.95;;;44.80;;
67248;SDS011;63247;54.300;18.592;2022-10-31T05:15:15;205.60;;;44.63;;
67248;SDS011;63247;54.300;18.592;2022-10-31T05:17:41;264.75;;;47.63;;
67248;SDS011;63247;54.300;18.592;2022-10-31T05:20:07;198.07;;;47.20;;
67248;SDS011;63247;54.300;18.592;2022-10-31T05:22:32;198.07;;;48.13;;
67248;SDS011;63247;54.300;18.592;2022-10-31T05:24:58;263.70;;;52.07;;
67248;SDS011;63247;54.300;18.592;2022-10-31T05:27:23;282.70;;;50.67;;
67248;SDS011;63247;54.300;18.592;2022-10-31T05:29:49;348.93;;;56.57;;
67248;SDS011;63247;54.300;18.592;2022-10-31T05:32:14;251.97;;;52.80;;
67248;SDS011;63247;54.300;18.592;2022-10-31T05:34:39;281.20;;;52.27;;
67248;SDS011;63247;54.300;18.592;2022-10-31T05:37:05;327.77;;;52.87;;
67248;SDS011;63247;54.300;18.592;2022-10-31T05:39:30;271.65;;;49.42;;
67248;SDS011;63247;54.300;18.592;2022-10-31T05:41:56;308.00;;;53.20;;
67248;SDS011;63247;54.300;18.592;2022-10-31T05:44:21;333.43;;;53.73;;
67248;SDS011;63247;54.300;18.592;2022-10-31T05:46:47;412.87;;;56.33;;
67248;SDS011;63247;54.300;18.592;2022-10-31T05:49:12;467.20;;;62.10;;
67248;SDS011;63247;54.300;18.592;2022-10-31T05:51:38;343.33;;;49.93;;
67248;SDS011;63247;54.300;18.592;2022-10-31T05:54:03;424.03;;;52.60;;
67248;SDS011;63247;54.300;18.592;2022-10-31T05:56:29;348.45;;;50.42;;
67248;SDS011;63247;54.300;18.592;2022-10-31T05:58:54;353.92;;;53.10;;
67248;SDS011;63247;54.300;18.592;2022-10-31T06:01:20;336.90;;;50.17;;
67248;SDS011;63247;54.300;18.592;2022-10-31T06:03:45;303.60;;;50.67;;
67248;SDS011;63247;54.300;18.592;2022-10-31T06:06:10;292.77;;;47.77;;
67248;SDS011;63247;54.300;18.592;2022-10-31T06:08:36;322.88;;;48.97;;
67248;SDS011;63247;54.300;18.592;2022-10-31T06:11:01;283.30;;;46.60;;
67248;SDS011;63247;54.300;18.592;2022-10-31T06:13:27;235.63;;;44.10;;
67248;SDS011;63247;54.300;18.592;2022-10-31T06:15:52;236.27;;;43.57;;
67248;SDS011;63247;54.300;18.592;2022-10-31T06:18:18;217.77;;;42.35;;
67248;SDS011;63247;54.300;18.592;2022-10-31T06:20:43;240.65;;;43.58;;
67248;SDS011;63247;54.300;18.592;2022-10-31T06:23:09;270.57;;;45.83;;
67248;SDS011;63247;54.300;18.592;2022-10-31T06:25:34;222.00;;;43.10;;
67248;SDS011;63247;54.300;18.592;2022-10-31T06:28:00;225.10;;;41.22;;
67248;SDS011;63247;54.300;18.592;2022-10-31T06:30:25;210.07;;;42.87;;
67248;SDS011;63247;54.300;18.592;2022-10-31T06:32:51;201.70;;;41.87;;
67248;SDS011;63247;54.300;18.592;2022-10-31T06:35:16;179.17;;;39.20;;
67248;SDS011;63247;54.300;18.592;2022-10-31T06:37:42;197.43;;;40.90;;
67248;SDS011;63247;54.300;18.592;2022-10-31T06:40:07;193.87;;;41.53;;
67248;SDS011;63247;54.300;18.592;2022-10-31T06:42:33;186.15;;;41.72;;
67248;SDS011;63247;54.300;18.592;2022-10-31T06:44:59;210.10;;;41.83;;
67248;SDS011;63247;54.300;18.592;2022-10-31T06:47:24;192.17;;;42.83;;
67248;SDS011;63247;54.300;18.592;2022-10-31T06:49:50;193.60;;;42.42;;
67248;SDS011;63247;54.300;18.592;2022-10-31T06:52:15;188.90;;;42.50;;
67248;SDS011;63247;54.300;18.592;2022-10-31T06:54:41;192.37;;;40.80;;
67248;SDS011;63247;54.300;18.592;2022-10-31T06:57:06;173.70;;;39.97;;
67248;SDS011;63247;54.300;18.592;2022-10-31T06:59:31;187.50;;;41.60;;
67248;SDS011;63247;54.300;18.592;2022-10-31T07:01:57;192.70;;;41.58;;
67248;SDS011;63247;54.300;18.592;2022-10-31T07:04:23;177.27;;;40.33;;
67248;SDS011;63247;54.300;18.592;2022-10-31T07:06:50;196.50;;;44.15;;
67248;SDS011;63247;54.300;18.592;2022-10-31T07:09:17;189.10;;;43.08;;
67248;SDS011;63247;54.300;18.592;2022-10-31T07:11:43;195.80;;;41.30;;
67248;SDS011;63247;54.300;18.592;2022-10-31T07:14:08;195.43;;;42.57;;
67248;SDS011;63247;54.300;18.592;2022-10-31T07:16:33;191.88;;;41.92;;
67248;SDS011;63247;54.300;18.592;2022-10-31T07:18:59;183.00;;;41.73;;
67248;SDS011;63247;54.300;18.592;2022-10-31T07:21:24;174.60;;;40.63;;
67248;SDS011;63247;54.300;18.592;2022-10-31T07:23:50;185.20;;;41.67;;
67248;SDS011;63247;54.300;18.592;2022-10-31T07:26:15;182.33;;;40.47;;
67248;SDS011;63247;54.300;18.592;2022-10-31T07:28:41;172.52;;;40.05;;
67248;SDS011;63247;54.300;18.592;2022-10-31T07:31:06;181.07;;;41.53;;
67248;SDS011;63247;54.300;18.592;2022-10-31T07:33:31;179.87;;;41.70;;
67248;SDS011;63247;54.300;18.592;2022-10-31T07:35:57;316.07;;;84.23;;
67248;SDS011;63247;54.300;18.592;2022-10-31T07:38:22;190.30;;;45.70;;
67248;SDS011;63247;54.300;18.592;2022-10-31T07:40:51;182.07;;;42.88;;
67248;SDS011;63247;54.300;18.592;2022-10-31T07:43:18;175.73;;;43.53;;
67248;SDS011;63247;54.300;18.592;2022-10-31T07:45:43;169.23;;;45.53;;
67248;SDS011;63247;54.300;18.592;2022-10-31T07:48:14;152.43;;;40.45;;
67248;SDS011;63247;54.300;18.592;2022-10-31T07:50:39;178.80;;;44.50;;
67248;SDS011;63247;54.300;18.592;2022-10-31T07:53:07;234.95;;;66.22;;
67248;SDS011;63247;54.300;18.592;2022-10-31T07:55:34;157.35;;;42.53;;
67248;SDS011;63247;54.300;18.592;2022-10-31T07:58:01;158.30;;;40.50;;
67248;SDS011;63247;54.300;18.592;2022-10-31T08:00:31;159.00;;;44.97;;
67248;SDS011;63247;54.300;18.592;2022-10-31T08:03:07;161.10;;;44.78;;
67248;SDS011;63247;54.300;18.592;2022-10-31T08:05:34;162.05;;;45.53;;
67248;SDS011;63247;54.300;18.592;2022-10-31T08:08:00;150.23;;;42.00;;
67248;SDS011;63247;54.300;18.592;2022-10-31T08:10:26;169.05;;;46.75;;
67248;SDS011;63247;54.300;18.592;2022-10-31T08:12:59;163.00;;;46.55;;
67248;SDS011;63247;54.300;18.592;2022-10-31T08:15:51;137.35;;;37.78;;
67248;SDS011;63247;54.300;18.592;2022-10-31T08:18:18;149.93;;;43.20;;
67248;SDS011;63247;54.300;18.592;2022-10-31T08:20:44;155.37;;;42.50;;
67248;SDS011;63247;54.300;18.592;2022-10-31T08:23:10;154.82;;;39.47;;
67248;SDS011;63247;54.300;18.592;2022-10-31T08:25:37;155.83;;;40.17;;
67248;SDS011;63247;54.300;18.592;2022-10-31T08:28:03;162.35;;;45.42;;
67248;SDS011;63247;54.300;18.592;2022-10-31T08:30:30;174.75;;;50.92;;
67248;SDS011;63247;54.300;18.592;2022-10-31T08:32:58;157.60;;;46.33;;
67248;SDS011;63247;54.300;18.592;2022-10-31T08:35:28;143.13;;;40.37;;
67248;SDS011;63247;54.300;18.592;2022-10-31T08:37:56;134.90;;;39.00;;
67248;SDS011;63247;54.300;18.592;2022-10-31T08:40:22;147.68;;;40.95;;
67248;SDS011;63247;54.300;18.592;2022-10-31T08:42:54;147.33;;;42.70;;
67248;SDS011;63247;54.300;18.592;2022-10-31T08:45:21;148.10;;;43.45;;
67248;SDS011;63247;54.300;18.592;2022-10-31T08:47:46;134.73;;;40.30;;
67248;SDS011;63247;54.300;18.592;2022-10-31T08:50:12;143.95;;;42.50;;
67248;SDS011;63247;54.300;18.592;2022-10-31T08:52:37;132.23;;;45.20;;
67248;SDS011;63247;54.300;18.592;2022-10-31T08:55:03;143.37;;;45.03;;
67248;SDS011;63247;54.300;18.592;2022-10-31T08:57:28;132.68;;;45.45;;
67248;SDS011;63247;54.300;18.592;2022-10-31T08:59:54;124.83;;;39.67;;
67248;SDS011;63247;54.300;18.592;2022-10-31T09:02:19;131.00;;;39.17;;
67248;SDS011;63247;54.300;18.592;2022-10-31T09:04:45;132.00;;;40.83;;
67248;SDS011;63247;54.300;18.592;2022-10-31T09:07:11;127.55;;;37.80;;
67248;SDS011;63247;54.300;18.592;2022-10-31T09:09:36;122.10;;;39.27;;
67248;SDS011;63247;54.300;18.592;2022-10-31T09:12:02;127.73;;;38.63;;
67248;SDS011;63247;54.300;18.592;2022-10-31T09:14:27;130.90;;;45.25;;
67248;SDS011;63247;54.300;18.592;2022-10-31T09:16:53;118.80;;;38.57;;
67248;SDS011;63247;54.300;18.592;2022-10-31T09:19:18;102.60;;;33.07;;
67248;SDS011;63247;54.300;18.592;2022-10-31T09:21:44;108.63;;;34.83;;
67248;SDS011;63247;54.300;18.592;2022-10-31T09:24:09;108.47;;;36.17;;
67248;SDS011;63247;54.300;18.592;2022-10-31T09:26:34;112.40;;;34.90;;
67248;SDS011;63247;54.300;18.592;2022-10-31T09:29:00;105.53;;;32.63;;
67248;SDS011;63247;54.300;18.592;2022-10-31T09:31:27;106.00;;;34.90;;
67248;SDS011;63247;54.300;18.592;2022-10-31T09:33:53;115.25;;;36.13;;
67248;SDS011;63247;54.300;18.592;2022-10-31T09:36:19;111.15;;;34.22;;
67248;SDS011;63247;54.300;18.592;2022-10-31T09:38:44;102.80;;;32.97;;
67248;SDS011;63247;54.300;18.592;2022-10-31T09:41:20;102.57;;;31.43;;
67248;SDS011;63247;54.300;18.592;2022-10-31T09:43:53;104.53;;;33.10;;
67248;SDS011;63247;54.300;18.592;2022-10-31T09:47:00;108.20;;;35.10;;
67248;SDS011;63247;54.300;18.592;2022-10-31T09:52:21;100.75;;;33.60;;
67248;SDS011;63247;54.300;18.592;2022-10-31T09:54:55;100.13;;;31.63;;
67248;SDS011;63247;54.300;18.592;2022-10-31T09:57:25;97.47;;;32.88;;
67248;SDS011;63247;54.300;18.592;2022-10-31T09:59:54;96.35;;;30.42;;
67248;SDS011;63247;54.300;18.592;2022-10-31T10:05:12;100.75;;;32.70;;
67248;SDS011;63247;54.300;18.592;2022-10-31T10:18:58;105.80;;;33.20;;
67248;SDS011;63247;54.300;18.592;2022-10-31T10:24:22;109.43;;;33.65;;
67248;SDS011;63247;54.300;18.592;2022-10-31T10:27:20;101.78;;;31.70;;
67248;SDS011;63247;54.300;18.592;2022-10-31T10:30:17;105.60;;;32.33;;
67248;SDS011;63247;54.300;18.592;2022-10-31T10:32:45;113.70;;;33.28;;
67248;SDS011;63247;54.300;18.592;2022-10-31T10:35:24;104.70;;;32.83;;
67248;SDS011;63247;54.300;18.592;2022-10-31T10:37:50;103.85;;;32.15;;
67248;SDS011;63247;54.300;18.592;2022-10-31T10:40:21;114.93;;;33.67;;
67248;SDS011;63247;54.300;18.592;2022-10-31T10:42:59;112.10;;;34.07;;
67248;SDS011;63247;54.300;18.592;2022-10-31T10:45:44;102.47;;;31.90;;
67248;SDS011;63247;54.300;18.592;2022-10-31T10:51:58;111.38;;;31.30;;
67248;SDS011;63247;54.300;18.592;2022-10-31T10:59:55;107.82;;;30.58;;
67248;SDS011;63247;54.300;18.592;2022-10-31T11:02:25;116.30;;;31.50;;
67248;SDS011;63247;54.300;18.592;2022-10-31T11:04:52;104.50;;;31.03;;
67248;SDS011;63247;54.300;18.592;2022-10-31T11:07:20;108.93;;;30.92;;
67248;SDS011;63247;54.300;18.592;2022-10-31T11:09:46;109.28;;;31.10;;
67248;SDS011;63247;54.300;18.592;2022-10-31T11:12:25;100.20;;;30.50;;
67248;SDS011;63247;54.300;18.592;2022-10-31T11:14:57;97.87;;;29.10;;
67248;SDS011;63247;54.300;18.592;2022-10-31T11:17:29;91.25;;;29.58;;
67248;SDS011;63247;54.300;18.592;2022-10-31T11:22:38;93.68;;;28.38;;
67248;SDS011;63247;54.300;18.592;2022-10-31T11:28:01;78.60;;;28.07;;
67248;SDS011;63247;54.300;18.592;2022-10-31T11:36:14;70.90;;;26.33;;
67248;SDS011;63247;54.300;18.592;2022-10-31T11:39:00;67.97;;;24.70;;
67248;SDS011;63247;54.300;18.592;2022-10-31T11:41:32;72.90;;;25.27;;
67248;SDS011;63247;54.300;18.592;2022-10-31T11:44:00;66.95;;;25.05;;
67248;SDS011;63247;54.300;18.592;2022-10-31T11:46:35;67.13;;;24.47;;
67248;SDS011;63247;54.300;18.592;2022-10-31T11:49:05;58.97;;;23.45;;
67248;SDS011;63247;54.300;18.592;2022-10-31T11:51:38;62.53;;;24.00;;
67248;SDS011;63247;54.300;18.592;2022-10-31T11:54:04;63.67;;;24.02;;
67248;SDS011;63247;54.300;18.592;2022-10-31T11:56:40;56.00;;;23.10;;
67248;SDS011;63247;54.300;18.592;2022-10-31T11:59:40;58.70;;;24.57;;
67248;SDS011;63247;54.300;18.592;2022-10-31T12:01:59;59.53;;;24.05;;
67248;SDS011;63247;54.300;18.592;2022-10-31T12:04:30;58.75;;;23.20;;
67248;SDS011;63247;54.300;18.592;2022-10-31T12:07:08;58.92;;;22.95;;
67248;SDS011;63247;54.300;18.592;2022-10-31T12:09:34;55.93;;;24.67;;
67248;SDS011;63247;54.300;18.592;2022-10-31T12:12:23;58.15;;;23.75;;
67248;SDS011;63247;54.300;18.592;2022-10-31T12:23:33;52.58;;;22.05;;
67248;SDS011;63247;54.300;18.592;2022-10-31T12:57:00;45.20;;;18.63;;
67248;SDS011;63247;54.300;18.592;2022-10-31T13:01:52;46.08;;;19.42;;
67248;SDS011;63247;54.300;18.592;2022-10-31T13:04:38;50.63;;;20.37;;
67248;SDS011;63247;54.300;18.592;2022-10-31T13:07:08;48.78;;;21.33;;
67248;SDS011;63247;54.300;18.592;2022-10-31T13:12:24;50.47;;;21.27;;
67248;SDS011;63247;54.300;18.592;2022-10-31T13:14:55;50.72;;;21.77;;
67248;SDS011;63247;54.300;18.592;2022-10-31T13:17:30;49.30;;;20.83;;
67248;SDS011;63247;54.300;18.592;2022-10-31T13:22:38;54.42;;;22.65;;
67248;SDS011;63247;54.300;18.592;2022-10-31T13:25:11;56.88;;;22.05;;
67248;SDS011;63247;54.300;18.592;2022-10-31T13:30:19;60.03;;;23.57;;
67248;SDS011;63247;54.300;18.592;2022-10-31T13:32:51;56.42;;;22.83;;
67248;SDS011;63247;54.300;18.592;2022-10-31T13:35:33;57.10;;;23.60;;
67248;SDS011;63247;54.300;18.592;2022-10-31T13:41:02;56.78;;;22.70;;
67248;SDS011;63247;54.300;18.592;2022-10-31T13:46:35;61.90;;;22.13;;
67248;SDS011;63247;54.300;18.592;2022-10-31T13:49:03;57.28;;;22.45;;
67248;SDS011;63247;54.300;18.592;2022-10-31T13:51:33;62.17;;;21.63;;
67248;SDS011;63247;54.300;18.592;2022-10-31T13:56:44;55.80;;;21.33;;
67248;SDS011;63247;54.300;18.592;2022-10-31T13:59:16;55.92;;;22.30;;
67248;SDS011;63247;54.300;18.592;2022-10-31T14:04:30;59.17;;;21.52;;
67248;SDS011;63247;54.300;18.592;2022-10-31T14:09:39;50.97;;;22.07;;
67248;SDS011;63247;54.300;18.592;2022-10-31T14:12:31;56.80;;;22.27;;
67248;SDS011;63247;54.300;18.592;2022-10-31T14:15:18;55.85;;;22.45;;
67248;SDS011;63247;54.300;18.592;2022-10-31T14:22:43;63.80;;;25.33;;
67248;SDS011;63247;54.300;18.592;2022-10-31T14:27:57;57.17;;;21.88;;
67248;SDS011;63247;54.300;18.592;2022-10-31T14:30:25;49.42;;;20.05;;
67248;SDS011;63247;54.300;18.592;2022-10-31T14:32:53;56.53;;;21.30;;
67248;SDS011;63247;54.300;18.592;2022-10-31T14:35:24;52.27;;;20.63;;
67248;SDS011;63247;54.300;18.592;2022-10-31T14:38:36;56.63;;;20.40;;
67248;SDS011;63247;54.300;18.592;2022-10-31T14:44:38;65.78;;;22.90;;
67248;SDS011;63247;54.300;18.592;2022-10-31T14:47:57;63.13;;;23.58;;
67248;SDS011;63247;54.300;18.592;2022-10-31T14:50:22;70.13;;;24.63;;
67248;SDS011;63247;54.300;18.592;2022-10-31T14:52:50;61.03;;;20.42;;
67248;SDS011;63247;54.300;18.592;2022-10-31T14:55:18;58.55;;;20.63;;
67248;SDS011;63247;54.300;18.592;2022-10-31T14:57:55;54.15;;;19.27;;
67248;SDS011;63247;54.300;18.592;2022-10-31T15:00:25;53.83;;;19.05;;
67248;SDS011;63247;54.300;18.592;2022-10-31T15:05:34;49.45;;;19.10;;
67248;SDS011;63247;54.300;18.592;2022-10-31T15:08:12;54.92;;;20.05;;
67248;SDS011;63247;54.300;18.592;2022-10-31T15:10:39;55.95;;;20.80;;
67248;SDS011;63247;54.300;18.592;2022-10-31T15:13:15;57.00;;;21.08;;
67248;SDS011;63247;54.300;18.592;2022-10-31T15:15:44;64.70;;;22.00;;
67248;SDS011;63247;54.300;18.592;2022-10-31T15:18:17;60.22;;;22.25;;
67248;SDS011;63247;54.300;18.592;2022-10-31T15:20:44;62.10;;;20.02;;
67248;SDS011;63247;54.300;18.592;2022-10-31T15:23:20;53.22;;;19.45;;
67248;SDS011;63247;54.300;18.592;2022-10-31T15:25:46;57.85;;;20.77;;
67248;SDS011;63247;54.300;18.592;2022-10-31T15:28:16;57.53;;;20.47;;
67248;SDS011;63247;54.300;18.592;2022-10-31T15:30:51;59.03;;;21.58;;
67248;SDS011;63247;54.300;18.592;2022-10-31T15:33:25;60.80;;;20.10;;
67248;SDS011;63247;54.300;18.592;2022-10-31T15:35:55;59.13;;;21.17;;
67248;SDS011;63247;54.300;18.592;2022-10-31T15:38:25;60.25;;;21.00;;
67248;SDS011;63247;54.300;18.592;2022-10-31T15:40:52;62.78;;;22.73;;
67248;SDS011;63247;54.300;18.592;2022-10-31T15:43:20;67.32;;;22.85;;
67248;SDS011;63247;54.300;18.592;2022-10-31T15:45:45;59.90;;;21.93;;
67248;SDS011;63247;54.300;18.592;2022-10-31T15:48:32;62.47;;;22.17;;
67248;SDS011;63247;54.300;18.592;2022-10-31T15:50:59;64.85;;;22.73;;
67248;SDS011;63247;54.300;18.592;2022-10-31T15:53:26;69.90;;;24.48;;
67248;SDS011;63247;54.300;18.592;2022-10-31T15:55:55;71.53;;;23.50;;
67248;SDS011;63247;54.300;18.592;2022-10-31T15:58:24;70.65;;;24.40;;
67248;SDS011;63247;54.300;18.592;2022-10-31T16:01:04;73.72;;;25.65;;
67248;SDS011;63247;54.300;18.592;2022-10-31T16:03:43;66.38;;;24.17;;
67248;SDS011;63247;54.300;18.592;2022-10-31T16:06:18;69.03;;;25.23;;
67248;SDS011;63247;54.300;18.592;2022-10-31T16:08:45;67.07;;;25.25;;
67248;SDS011;63247;54.300;18.592;2022-10-31T16:16:23;67.65;;;24.23;;
67248;SDS011;63247;54.300;18.592;2022-10-31T16:18:49;68.35;;;24.20;;
67248;SDS011;63247;54.300;18.592;2022-10-31T16:21:22;71.10;;;25.90;;
67248;SDS011;63247;54.300;18.592;2022-10-31T16:23:50;79.75;;;26.15;;
67248;SDS011;63247;54.300;18.592;2022-10-31T16:26:23;79.57;;;28.10;;
67248;SDS011;63247;54.300;18.592;2022-10-31T16:28:56;83.57;;;27.98;;
67248;SDS011;63247;54.300;18.592;2022-10-31T16:31:27;82.05;;;28.73;;
67248;SDS011;63247;54.300;18.592;2022-10-31T16:36:40;90.72;;;30.65;;
67248;SDS011;63247;54.300;18.592;2022-10-31T16:39:06;79.55;;;27.67;;
67248;SDS011;63247;54.300;18.592;2022-10-31T16:41:32;82.97;;;27.50;;